sensor_id;sensor_type;location;lat;lon;timestamp;pressure;altitude;pressure_sealevel;temperature;humidity
9831;BME280;4954;48.476;8.168;2024-03-23T00:53:32;97725.16;;;9.89;93.72
9831;BME280;4954;48.476;8.168;2024-03-23T00:55:59;97727.06;;;10.07;nan
9831;BME280;4954;48.476;8.168;2024-03-23T00:58:24;97720.44;;;10.22;nan
9831;BME280;4954;48.476;8.168;2024-03-23T01:00:50;97713.00;;;10.37;nan
9831;BME280;4954;48.476;8.168;2024-03-23T01:03:16;97711.78;;;10.49;nan
9831;BME280;4954;48.476;8.168;2024-03-23T01:05:41;97708.19;;;10.66;nan
9831;BME280;4954;48.476;8.168;2024-03-23T01:08:07;97710.84;;;10.80;nan
9831;BME280;4954;48.476;8.168;2024-03-23T01:10:32;97704.22;;;10.81;nan
9831;BME280;4954;48.476;8.168;2024-03-23T01:12:58;97698.00;;;10.84;100.00
9831;BME280;4954;48.476;8.168;2024-03-23T01:15:23;97703.34;;;10.99;nan
9831;BME280;4954;48.476;8.168;2024-03-23T01:17:49;97706.34;;;11.15;nan
9831;BME280;4954;48.476;8.168;2024-03-23T01:20:14;97701.56;;;11.30;nan
9831;BME280;4954;48.476;8.168;2024-03-23T01:22:40;97694.75;;;11.53;nan
9831;BME280;4954;48.476;8.168;2024-03-23T01:25:05;97696.53;;;11.70;nan
9831;BME280;4954;48.476;8.168;2024-03-23T01:27:31;97686.25;;;11.85;nan
9831;BME280;4954;48.476;8.168;2024-03-23T01:29:56;97702.50;;;11.96;95.26
9831;BME280;4954;48.476;8.168;2024-03-23T01:32:22;97686.47;;;12.05;nan
9831;BME280;4954;48.476;8.168;2024-03-23T01:34:47;97682.06;;;12.15;nan
9831;BME280;4954;48.476;8.168;2024-03-23T01:37:13;97684.38;;;12.16;nan
9831;BME280;4954;48.476;8.168;2024-03-23T01:39:38;97685.94;;;12.17;nan
9831;BME280;4954;48.476;8.168;2024-03-23T01:42:04;97675.66;;;12.29;nan
9831;BME280;4954;48.476;8.168;2024-03-23T01:44:30;97671.59;;;12.40;nan
9831;BME280;4954;48.476;8.168;2024-03-23T01:46:55;97671.59;;;12.40;nan
9831;BME280;4954;48.476;8.168;2024-03-23T01:49:21;97667.00;;;12.37;nan
9831;BME280;4954;48.476;8.168;2024-03-23T01:51:46;97666.31;;;12.30;nan
9831;BME280;4954;48.476;8.168;2024-03-23T01:54:12;97671.03;;;12.26;nan
9831;BME280;4954;48.476;8.168;2024-03-23T01:56:38;97670.69;;;12.24;nan
9831;BME280;4954;48.476;8.168;2024-03-23T01:59:04;97670.72;;;12.20;nan
9831;BME280;4954;48.476;8.168;2024-03-23T02:01:32;97656.44;;;12.09;nan
9831;BME280;4954;48.476;8.168;2024-03-23T02:03:58;97658.97;;;11.92;nan
9831;BME280;4954;48.476;8.168;2024-03-23T02:06:24;97656.72;;;11.80;nan
9831;BME280;4954;48.476;8.168;2024-03-23T02:08:50;97649.06;;;11.71;nan
9831;BME280;4954;48.476;8.168;2024-03-23T02:11:16;97659.25;;;11.63;nan
9831;BME280;4954;48.476;8.168;2024-03-23T02:13:41;97645.75;;;11.49;nan
9831;BME280;4954;48.476;8.168;2024-03-23T02:16:07;97650.50;;;11.41;nan
9831;BME280;4954;48.476;8.168;2024-03-23T02:18:33;97654.09;;;11.35;nan
9831;BME280;4954;48.476;8.168;2024-03-23T02:20:59;97655.69;;;11.29;nan
9831;BME280;4954;48.476;8.168;2024-03-23T02:23:24;97650.28;;;11.25;nan
9831;BME280;4954;48.476;8.168;2024-03-23T02:25:50;97647.94;;;11.23;nan
9831;BME280;4954;48.476;8.168;2024-03-23T02:28:16;97647.59;;;11.21;nan
9831;BME280;4954;48.476;8.168;2024-03-23T02:30:42;97648.75;;;11.20;nan
9831;BME280;4954;48.476;8.168;2024-03-23T02:33:08;97642.56;;;11.16;nan
9831;BME280;4954;48.476;8.168;2024-03-23T02:35:34;97637.22;;;11.47;nan
9831;BME280;4954;48.476;8.168;2024-03-23T02:38:00;97633.16;;;11.66;nan
9831;BME280;4954;48.476;8.168;2024-03-23T02:40:26;97632.38;;;11.66;nan
9831;BME280;4954;48.476;8.168;2024-03-23T02:42:52;97635.34;;;11.78;nan
9831;BME280;4954;48.476;8.168;2024-03-23T02:45:18;97626.03;;;12.14;nan
9831;BME280;4954;48.476;8.168;2024-03-23T02:47:43;97641.25;;;12.38;nan
9831;BME280;4954;48.476;8.168;2024-03-23T02:50:09;97639.38;;;12.35;nan
9831;BME280;4954;48.476;8.168;2024-03-23T02:52:35;97634.69;;;12.36;nan
9831;BME280;4954;48.476;8.168;2024-03-23T02:55:01;97626.69;;;12.21;nan
9831;BME280;4954;48.476;8.168;2024-03-23T02:57:27;97615.94;;;12.11;nan
9831;BME280;4954;48.476;8.168;2024-03-23T02:59:53;97606.63;;;12.08;nan
9831;BME280;4954;48.476;8.168;2024-03-23T03:02:20;97597.78;;;12.00;nan
9831;BME280;4954;48.476;8.168;2024-03-23T03:04:45;97587.44;;;11.85;nan
9831;BME280;4954;48.476;8.168;2024-03-23T03:07:11;97584.50;;;11.68;nan
9831;BME280;4954;48.476;8.168;2024-03-23T03:09:36;97590.13;;;11.54;nan
9831;BME280;4954;48.476;8.168;2024-03-23T03:12:04;97584.72;;;11.50;nan
9831;BME280;4954;48.476;8.168;2024-03-23T03:14:33;97581.41;;;11.66;nan
9831;BME280;4954;48.476;8.168;2024-03-23T03:16:59;97584.53;;;11.65;nan
9831;BME280;4954;48.476;8.168;2024-03-23T03:19:25;97579.13;;;11.61;nan
9831;BME280;4954;48.476;8.168;2024-03-23T03:21:51;97576.47;;;11.57;nan
9831;BME280;4954;48.476;8.168;2024-03-23T03:24:18;97569.50;;;11.53;nan
9831;BME280;4954;48.476;8.168;2024-03-23T03:26:44;97570.34;;;11.46;95.20
9831;BME280;4954;48.476;8.168;2024-03-23T03:29:09;97562.63;;;11.41;nan
9831;BME280;4954;48.476;8.168;2024-03-23T03:31:37;97558.38;;;11.40;94.58
9831;BME280;4954;48.476;8.168;2024-03-23T03:34:03;97560.28;;;11.43;nan
9831;BME280;4954;48.476;8.168;2024-03-23T03:36:28;97561.81;;;11.44;nan
9831;BME280;4954;48.476;8.168;2024-03-23T03:38:54;97580.53;;;11.42;nan
9831;BME280;4954;48.476;8.168;2024-03-23T03:41:19;97565.41;;;11.34;nan
9831;BME280;4954;48.476;8.168;2024-03-23T03:43:45;97542.53;;;11.28;95.18
9831;BME280;4954;48.476;8.168;2024-03-23T03:46:10;97549.22;;;11.23;nan
9831;BME280;4954;48.476;8.168;2024-03-23T03:48:36;97552.72;;;11.20;nan
9831;BME280;4954;48.476;8.168;2024-03-23T03:51:02;97550.03;;;11.16;nan
9831;BME280;4954;48.476;8.168;2024-03-23T03:53:28;97542.72;;;11.13;nan
9831;BME280;4954;48.476;8.168;2024-03-23T03:55:54;97524.38;;;11.17;nan
9831;BME280;4954;48.476;8.168;2024-03-23T03:58:19;97494.44;;;11.21;nan
9831;BME280;4954;48.476;8.168;2024-03-23T04:00:45;97511.50;;;11.21;nan
9831;BME280;4954;48.476;8.168;2024-03-23T04:03:10;97522.41;;;11.21;nan
9831;BME280;4954;48.476;8.168;2024-03-23T04:05:36;97558.09;;;11.65;nan
9831;BME280;4954;48.476;8.168;2024-03-23T04:08:01;97588.44;;;11.63;nan
9831;BME280;4954;48.476;8.168;2024-03-23T04:10:27;97588.47;;;11.22;nan
9831;BME280;4954;48.476;8.168;2024-03-23T04:12:53;97584.88;;;10.91;nan
9831;BME280;4954;48.476;8.168;2024-03-23T04:15:19;97580.78;;;10.68;nan
9831;BME280;4954;48.476;8.168;2024-03-23T04:17:45;97576.63;;;10.53;nan
9831;BME280;4954;48.476;8.168;2024-03-23T04:20:11;97560.00;;;10.43;nan
9831;BME280;4954;48.476;8.168;2024-03-23T04:22:38;97574.41;;;10.37;nan
9831;BME280;4954;48.476;8.168;2024-03-23T04:25:04;97585.31;;;10.30;nan
9831;BME280;4954;48.476;8.168;2024-03-23T04:27:32;97609.00;;;10.25;nan
9831;BME280;4954;48.476;8.168;2024-03-23T04:29:58;97616.44;;;10.14;nan
9831;BME280;4954;48.476;8.168;2024-03-23T04:32:26;97618.81;;;10.01;nan
9831;BME280;4954;48.476;8.168;2024-03-23T04:34:53;97618.09;;;9.86;nan
9831;BME280;4954;48.476;8.168;2024-03-23T04:37:22;97610.00;;;9.76;nan
9831;BME280;4954;48.476;8.168;2024-03-23T04:39:48;97604.59;;;9.69;nan
9831;BME280;4954;48.476;8.168;2024-03-23T04:42:17;97611.22;;;9.60;nan
9831;BME280;4954;48.476;8.168;2024-03-23T04:44:42;97612.41;;;9.56;nan
9831;BME280;4954;48.476;8.168;2024-03-23T04:47:08;97617.44;;;9.50;nan
9831;BME280;4954;48.476;8.168;2024-03-23T04:49:34;97630.63;;;9.44;nan
9831;BME280;4954;48.476;8.168;2024-03-23T04:52:04;97631.78;;;9.40;nan
9831;BME280;4954;48.476;8.168;2024-03-23T04:54:30;97633.34;;;9.37;nan
9831;BME280;4954;48.476;8.168;2024-03-23T04:56:57;97653.53;;;9.29;nan
9831;BME280;4954;48.476;8.168;2024-03-23T04:59:23;97653.13;;;9.20;nan
9831;BME280;4954;48.476;8.168;2024-03-23T05:01:48;97666.31;;;9.14;nan
9831;BME280;4954;48.476;8.168;2024-03-23T05:04:13;97675.25;;;9.11;nan
9831;BME280;4954;48.476;8.168;2024-03-23T05:06:39;97694.22;;;9.07;nan
9831;BME280;4954;48.476;8.168;2024-03-23T05:09:04;97700.03;;;9.02;nan
9831;BME280;4954;48.476;8.168;2024-03-23T05:11:37;97694.19;;;8.97;nan
9831;BME280;4954;48.476;8.168;2024-03-23T05:14:03;97706.22;;;8.96;93.45
9831;BME280;4954;48.476;8.168;2024-03-23T05:16:29;97712.81;;;8.98;100.00
9831;BME280;4954;48.476;8.168;2024-03-23T05:18:54;97708.53;;;8.94;93.47
9831;BME280;4954;48.476;8.168;2024-03-23T05:21:20;97716.28;;;8.88;nan
9831;BME280;4954;48.476;8.168;2024-03-23T05:23:46;97705.44;;;8.84;nan
9831;BME280;4954;48.476;8.168;2024-03-23T05:26:11;97700.38;;;8.83;nan
9831;BME280;4954;48.476;8.168;2024-03-23T05:28:37;97701.56;;;8.78;nan
9831;BME280;4954;48.476;8.168;2024-03-23T05:31:02;97704.66;;;8.80;nan
9831;BME280;4954;48.476;8.168;2024-03-23T05:33:28;97714.69;;;8.73;nan
9831;BME280;4954;48.476;8.168;2024-03-23T05:35:58;97724.75;;;8.65;nan
9831;BME280;4954;48.476;8.168;2024-03-23T05:38:25;97731.69;;;8.52;nan
9831;BME280;4954;48.476;8.168;2024-03-23T05:40:55;97738.16;;;8.36;nan
9831;BME280;4954;48.476;8.168;2024-03-23T05:43:21;97745.81;;;8.20;nan
9831;BME280;4954;48.476;8.168;2024-03-23T05:45:57;97762.06;;;8.16;nan
9831;BME280;4954;48.476;8.168;2024-03-23T05:48:25;97754.69;;;8.09;nan
9831;BME280;4954;48.476;8.168;2024-03-23T05:50:52;97767.41;;;8.05;nan
9831;BME280;4954;48.476;8.168;2024-03-23T05:53:18;97774.34;;;7.99;nan
9831;BME280;4954;48.476;8.168;2024-03-23T05:55:48;97769.28;;;7.94;nan
9831;BME280;4954;48.476;8.168;2024-03-23T05:58:15;97781.66;;;7.92;nan
9831;BME280;4954;48.476;8.168;2024-03-23T06:00:42;97786.63;;;7.86;nan
9831;BME280;4954;48.476;8.168;2024-03-23T06:03:09;97796.28;;;7.83;nan
9831;BME280;4954;48.476;8.168;2024-03-23T06:05:35;97791.63;;;7.80;nan
9831;BME280;4954;48.476;8.168;2024-03-23T06:08:04;97796.63;;;7.78;nan
9831;BME280;4954;48.476;8.168;2024-03-23T06:10:31;97799.28;;;7.71;nan
9831;BME280;4954;48.476;8.168;2024-03-23T06:12:57;97809.69;;;7.69;nan
9831;BME280;4954;48.476;8.168;2024-03-23T06:15:24;97807.38;;;7.67;nan
9831;BME280;4954;48.476;8.168;2024-03-23T06:17:50;97826.31;;;7.64;nan
9831;BME280;4954;48.476;8.168;2024-03-23T06:20:15;97827.84;;;7.65;nan
9831;BME280;4954;48.476;8.168;2024-03-23T06:22:41;97830.16;;;7.63;nan
9831;BME280;4954;48.476;8.168;2024-03-23T06:25:07;97832.84;;;7.63;nan
9831;BME280;4954;48.476;8.168;2024-03-23T06:27:33;97851.78;;;7.63;nan
9831;BME280;4954;48.476;8.168;2024-03-23T06:30:01;97856.81;;;7.61;nan
9831;BME280;4954;48.476;8.168;2024-03-23T06:32:28;97841.69;;;7.56;nan
9831;BME280;4954;48.476;8.168;2024-03-23T06:34:56;97851.31;;;7.54;nan
9831;BME280;4954;48.476;8.168;2024-03-23T06:37:22;97854.34;;;7.45;100.00
9831;BME280;4954;48.476;8.168;2024-03-23T06:39:47;97847.72;;;7.42;nan
9831;BME280;4954;48.476;8.168;2024-03-23T06:42:13;97863.19;;;7.42;nan
9831;BME280;4954;48.476;8.168;2024-03-23T06:44:39;97855.44;;;7.37;nan
9831;BME280;4954;48.476;8.168;2024-03-23T06:47:05;97855.38;;;7.33;nan
9831;BME280;4954;48.476;8.168;2024-03-23T06:49:30;97851.44;;;7.23;nan
9831;BME280;4954;48.476;8.168;2024-03-23T06:51:56;97873.03;;;7.20;100.00
9831;BME280;4954;48.476;8.168;2024-03-23T06:54:21;97888.78;;;7.14;nan
9831;BME280;4954;48.476;8.168;2024-03-23T06:56:47;97895.34;;;7.13;nan
9831;BME280;4954;48.476;8.168;2024-03-23T06:59:12;97911.16;;;7.11;nan
9831;BME280;4954;48.476;8.168;2024-03-23T07:01:38;97907.72;;;7.14;nan
9831;BME280;4954;48.476;8.168;2024-03-23T07:04:04;97916.19;;;7.13;nan
9831;BME280;4954;48.476;8.168;2024-03-23T07:06:32;97915.69;;;7.03;nan
9831;BME280;4954;48.476;8.168;2024-03-23T07:08:57;97925.72;;;7.03;nan
9831;BME280;4954;48.476;8.168;2024-03-23T07:11:24;97926.56;;;7.07;nan
9831;BME280;4954;48.476;8.168;2024-03-23T07:13:50;97924.22;;;7.05;nan
9831;BME280;4954;48.476;8.168;2024-03-23T07:16:16;97947.31;;;6.99;nan
9831;BME280;4954;48.476;8.168;2024-03-23T07:18:42;97946.53;;;6.99;nan
9831;BME280;4954;48.476;8.168;2024-03-23T07:21:08;97957.72;;;6.97;nan
9831;BME280;4954;48.476;8.168;2024-03-23T07:23:34;97962.44;;;7.04;nan
9831;BME280;4954;48.476;8.168;2024-03-23T07:26:01;97982.81;;;6.98;nan
9831;BME280;4954;48.476;8.168;2024-03-23T07:28:29;97988.56;;;6.93;nan
9831;BME280;4954;48.476;8.168;2024-03-23T07:31:15;97963.88;;;6.94;nan
9831;BME280;4954;48.476;8.168;2024-03-23T07:33:48;97983.59;;;6.98;nan
9831;BME280;4954;48.476;8.168;2024-03-23T07:36:14;97973.88;;;6.94;nan
9831;BME280;4954;48.476;8.168;2024-03-23T07:38:41;97963.06;;;6.94;nan
9831;BME280;4954;48.476;8.168;2024-03-23T07:41:25;97963.44;;;6.92;nan
9831;BME280;4954;48.476;8.168;2024-03-23T07:43:53;98004.72;;;6.89;nan
9831;BME280;4954;48.476;8.168;2024-03-23T07:46:21;98011.63;;;6.86;nan
9831;BME280;4954;48.476;8.168;2024-03-23T07:48:47;98020.16;;;6.88;nan
9831;BME280;4954;48.476;8.168;2024-03-23T07:51:21;98014.00;;;6.92;nan
9831;BME280;4954;48.476;8.168;2024-03-23T07:53:48;98016.72;;;6.92;nan
9831;BME280;4954;48.476;8.168;2024-03-23T07:56:15;98019.41;;;6.92;nan
9831;BME280;4954;48.476;8.168;2024-03-23T07:58:41;98035.97;;;6.86;nan
9831;BME280;4954;48.476;8.168;2024-03-23T08:01:12;98025.97;;;6.90;nan
9831;BME280;4954;48.476;8.168;2024-03-23T08:03:41;98023.41;;;7.01;nan
9831;BME280;4954;48.476;8.168;2024-03-23T08:06:13;98027.41;;;7.11;nan
9831;BME280;4954;48.476;8.168;2024-03-23T08:08:39;98036.34;;;7.15;nan
9831;BME280;4954;48.476;8.168;2024-03-23T08:11:06;98032.50;;;7.16;nan
9831;BME280;4954;48.476;8.168;2024-03-23T08:13:32;98044.56;;;7.22;nan
9831;BME280;4954;48.476;8.168;2024-03-23T08:16:00;98043.91;;;7.33;nan
9831;BME280;4954;48.476;8.168;2024-03-23T08:18:26;98045.91;;;7.36;nan
9831;BME280;4954;48.476;8.168;2024-03-23T08:21:02;98049.44;;;7.40;nan
9831;BME280;4954;48.476;8.168;2024-03-23T08:23:33;98048.56;;;7.32;nan
9831;BME280;4954;48.476;8.168;2024-03-23T08:26:12;98074.38;;;7.26;nan
9831;BME280;4954;48.476;8.168;2024-03-23T08:28:39;98069.31;;;7.24;nan
9831;BME280;4954;48.476;8.168;2024-03-23T08:31:06;98083.66;;;7.28;nan
9831;BME280;4954;48.476;8.168;2024-03-23T08:33:34;98100.31;;;7.30;nan
9831;BME280;4954;48.476;8.168;2024-03-23T08:36:02;98105.72;;;7.30;nan
9831;BME280;4954;48.476;8.168;2024-03-23T08:38:33;98107.75;;;7.37;nan
9831;BME280;4954;48.476;8.168;2024-03-23T08:41:00;98112.06;;;7.42;nan
9831;BME280;4954;48.476;8.168;2024-03-23T08:43:27;98126.63;;;7.60;nan
9831;BME280;4954;48.476;8.168;2024-03-23T08:45:53;98144.56;;;8.06;nan
9831;BME280;4954;48.476;8.168;2024-03-23T08:48:20;98119.88;;;8.11;nan
9831;BME280;4954;48.476;8.168;2024-03-23T08:50:46;98131.84;;;8.06;nan
9831;BME280;4954;48.476;8.168;2024-03-23T08:53:12;98126.63;;;8.24;nan
9831;BME280;4954;48.476;8.168;2024-03-23T08:55:38;98113.84;;;8.25;nan
9831;BME280;4954;48.476;8.168;2024-03-23T08:58:03;98119.09;;;8.44;nan
9831;BME280;4954;48.476;8.168;2024-03-23T09:00:30;98111.13;;;8.62;nan
9831;BME280;4954;48.476;8.168;2024-03-23T09:02:55;98113.69;;;8.44;100.00
9831;BME280;4954;48.476;8.168;2024-03-23T09:05:22;98122.41;;;8.31;nan
9831;BME280;4954;48.476;8.168;2024-03-23T09:07:49;98127.03;;;8.26;nan
9831;BME280;4954;48.476;8.168;2024-03-23T09:10:15;98129.16;;;8.10;nan
9831;BME280;4954;48.476;8.168;2024-03-23T09:12:40;98137.72;;;8.16;nan
9831;BME280;4954;48.476;8.168;2024-03-23T09:15:06;98140.78;;;8.14;nan
9831;BME280;4954;48.476;8.168;2024-03-23T09:17:32;98138.66;;;7.97;100.00
9831;BME280;4954;48.476;8.168;2024-03-23T09:19:57;98135.84;;;7.86;nan
9831;BME280;4954;48.476;8.168;2024-03-23T09:22:23;98132.41;;;7.93;nan
9831;BME280;4954;48.476;8.168;2024-03-23T09:24:48;98143.41;;;8.03;nan
9831;BME280;4954;48.476;8.168;2024-03-23T09:27:14;98140.16;;;8.24;nan
9831;BME280;4954;48.476;8.168;2024-03-23T09:29:40;98151.28;;;8.50;nan
9831;BME280;4954;48.476;8.168;2024-03-23T09:32:06;98145.50;;;8.92;nan
9831;BME280;4954;48.476;8.168;2024-03-23T09:34:31;98141.06;;;9.88;nan
9831;BME280;4954;48.476;8.168;2024-03-23T09:36:57;98143.00;;;9.83;nan
9831;BME280;4954;48.476;8.168;2024-03-23T09:39:22;98132.44;;;11.13;nan
9831;BME280;4954;48.476;8.168;2024-03-23T09:41:48;98123.69;;;11.86;nan
9831;BME280;4954;48.476;8.168;2024-03-23T09:44:17;98128.66;;;12.83;nan
9831;BME280;4954;48.476;8.168;2024-03-23T09:46:42;98119.53;;;13.04;nan
9831;BME280;4954;48.476;8.168;2024-03-23T09:49:08;98104.25;;;12.61;nan
9831;BME280;4954;48.476;8.168;2024-03-23T09:51:36;98104.16;;;12.16;nan
9831;BME280;4954;48.476;8.168;2024-03-23T09:54:02;98099.53;;;12.10;nan
9831;BME280;4954;48.476;8.168;2024-03-23T09:56:28;98102.84;;;10.54;nan
9831;BME280;4954;48.476;8.168;2024-03-23T09:59:03;98107.38;;;10.14;nan
9831;BME280;4954;48.476;8.168;2024-03-23T10:01:30;98117.75;;;9.76;nan
9831;BME280;4954;48.476;8.168;2024-03-23T10:03:57;98148.94;;;9.37;nan
9831;BME280;4954;48.476;8.168;2024-03-23T10:06:22;98167.19;;;8.92;nan
9831;BME280;4954;48.476;8.168;2024-03-23T10:08:52;98189.97;;;8.46;nan
9831;BME280;4954;48.476;8.168;2024-03-23T10:11:20;98203.28;;;7.98;nan
9831;BME280;4954;48.476;8.168;2024-03-23T10:13:46;98208.94;;;7.59;nan
9831;BME280;4954;48.476;8.168;2024-03-23T10:16:21;98220.19;;;7.12;nan
9831;BME280;4954;48.476;8.168;2024-03-23T10:18:48;98208.75;;;6.99;nan
9831;BME280;4954;48.476;8.168;2024-03-23T10:21:15;98219.91;;;6.97;nan
9831;BME280;4954;48.476;8.168;2024-03-23T10:23:42;98199.50;;;6.77;nan
9831;BME280;4954;48.476;8.168;2024-03-23T10:26:13;98195.16;;;6.72;nan
9831;BME280;4954;48.476;8.168;2024-03-23T10:28:58;98204.34;;;6.67;nan
9831;BME280;4954;48.476;8.168;2024-03-23T10:31:33;98203.72;;;6.35;nan
9831;BME280;4954;48.476;8.168;2024-03-23T10:34:05;98205.28;;;5.97;nan
9831;BME280;4954;48.476;8.168;2024-03-23T10:36:30;98225.38;;;6.00;nan
9831;BME280;4954;48.476;8.168;2024-03-23T10:38:56;98222.13;;;5.75;nan
9831;BME280;4954;48.476;8.168;2024-03-23T10:41:26;98226.88;;;5.30;nan
9831;BME280;4954;48.476;8.168;2024-03-23T10:43:55;98247.56;;;5.10;nan
9831;BME280;4954;48.476;8.168;2024-03-23T10:46:21;98256.22;;;5.03;nan
9831;BME280;4954;48.476;8.168;2024-03-23T10:48:46;98254.84;;;4.93;nan
9831;BME280;4954;48.476;8.168;2024-03-23T10:51:14;98259.59;;;4.84;nan
9831;BME280;4954;48.476;8.168;2024-03-23T10:53:40;98250.19;;;4.78;nan
9831;BME280;4954;48.476;8.168;2024-03-23T10:56:06;98247.78;;;4.73;nan
9831;BME280;4954;48.476;8.168;2024-03-23T10:58:40;98246.38;;;4.79;nan
9831;BME280;4954;48.476;8.168;2024-03-23T11:01:12;98240.72;;;4.84;nan
9831;BME280;4954;48.476;8.168;2024-03-23T11:03:39;98249.97;;;4.99;nan
9831;BME280;4954;48.476;8.168;2024-03-23T11:06:10;98244.44;;;5.24;nan
9831;BME280;4954;48.476;8.168;2024-03-23T11:08:40;98244.19;;;5.45;nan
9831;BME280;4954;48.476;8.168;2024-03-23T11:11:20;98241.91;;;5.47;nan
9831;BME280;4954;48.476;8.168;2024-03-23T11:13:51;98242.16;;;5.58;nan
9831;BME280;4954;48.476;8.168;2024-03-23T11:16:28;98243.34;;;5.60;nan
9831;BME280;4954;48.476;8.168;2024-03-23T11:19:35;98242.75;;;5.67;nan
9831;BME280;4954;48.476;8.168;2024-03-23T11:22:02;98247.81;;;5.68;nan
9831;BME280;4954;48.476;8.168;2024-03-23T11:24:28;98240.13;;;5.70;nan
9831;BME280;4954;48.476;8.168;2024-03-23T11:26:54;98237.44;;;5.70;nan
9831;BME280;4954;48.476;8.168;2024-03-23T11:29:23;98243.34;;;5.76;nan
9831;BME280;4954;48.476;8.168;2024-03-23T11:31:52;98247.09;;;5.71;nan
9831;BME280;4954;48.476;8.168;2024-03-23T11:34:19;98243.63;;;5.71;nan
9831;BME280;4954;48.476;8.168;2024-03-23T11:36:46;98249.44;;;5.73;nan
9831;BME280;4954;48.476;8.168;2024-03-23T11:39:17;98240.66;;;5.76;nan
9831;BME280;4954;48.476;8.168;2024-03-23T11:41:51;98237.13;;;6.07;nan
9831;BME280;4954;48.476;8.168;2024-03-23T11:44:22;98235.72;;;6.33;nan
9831;BME280;4954;48.476;8.168;2024-03-23T11:46:50;98227.88;;;6.47;nan
9831;BME280;4954;48.476;8.168;2024-03-23T11:49:24;98221.91;;;6.58;nan
9831;BME280;4954;48.476;8.168;2024-03-23T11:51:54;98235.09;;;6.82;nan
9831;BME280;4954;48.476;8.168;2024-03-23T11:54:25;98247.06;;;6.81;nan
9831;BME280;4954;48.476;8.168;2024-03-23T11:57:03;98236.03;;;6.70;nan
9831;BME280;4954;48.476;8.168;2024-03-23T11:59:38;98240.81;;;6.77;nan
9831;BME280;4954;48.476;8.168;2024-03-23T12:02:11;98241.84;;;7.15;nan
9831;BME280;4954;48.476;8.168;2024-03-23T12:04:40;98229.75;;;8.08;nan
9831;BME280;4954;48.476;8.168;2024-03-23T12:07:19;98219.94;;;8.98;nan
9831;BME280;4954;48.476;8.168;2024-03-23T12:09:47;98209.28;;;9.79;nan
9831;BME280;4954;48.476;8.168;2024-03-23T12:12:27;98196.44;;;10.42;nan
9831;BME280;4954;48.476;8.168;2024-03-23T12:15:07;98192.59;;;10.57;nan
9831;BME280;4954;48.476;8.168;2024-03-23T12:17:34;98193.38;;;10.51;nan
9831;BME280;4954;48.476;8.168;2024-03-23T12:20:01;98200.94;;;10.09;nan
9831;BME280;4954;48.476;8.168;2024-03-23T12:22:30;98177.66;;;9.45;nan
9831;BME280;4954;48.476;8.168;2024-03-23T12:24:56;98168.50;;;9.13;nan
9831;BME280;4954;48.476;8.168;2024-03-23T12:27:22;98177.72;;;8.60;nan
9831;BME280;4954;48.476;8.168;2024-03-23T12:29:48;98181.41;;;8.44;nan
9831;BME280;4954;48.476;8.168;2024-03-23T12:32:14;98192.75;;;7.89;nan
9831;BME280;4954;48.476;8.168;2024-03-23T12:34:41;98183.75;;;7.55;nan
9831;BME280;4954;48.476;8.168;2024-03-23T12:37:07;98176.00;;;7.27;nan
9831;BME280;4954;48.476;8.168;2024-03-23T12:39:34;98167.91;;;7.04;nan
9831;BME280;4954;48.476;8.168;2024-03-23T12:42:01;98160.75;;;6.69;nan
9831;BME280;4954;48.476;8.168;2024-03-23T12:44:30;98157.78;;;6.55;93.14
9831;BME280;4954;48.476;8.168;2024-03-23T12:46:56;98166.19;;;6.49;nan
9831;BME280;4954;48.476;8.168;2024-03-23T12:49:22;98170.31;;;6.43;nan
9831;BME280;4954;48.476;8.168;2024-03-23T12:51:55;98161.38;;;6.39;nan
9831;BME280;4954;48.476;8.168;2024-03-23T12:54:22;98157.97;;;6.42;nan
9831;BME280;4954;48.476;8.168;2024-03-23T12:56:49;98148.78;;;6.47;nan
9831;BME280;4954;48.476;8.168;2024-03-23T12:59:14;98146.13;;;6.50;nan
9831;BME280;4954;48.476;8.168;2024-03-23T13:01:41;98138.56;;;6.37;nan
9831;BME280;4954;48.476;8.168;2024-03-23T13:04:08;98155.28;;;6.23;nan
9831;BME280;4954;48.476;8.168;2024-03-23T13:06:34;98157.97;;;6.03;93.11
9831;BME280;4954;48.476;8.168;2024-03-23T13:09:03;98153.25;;;5.81;nan
9831;BME280;4954;48.476;8.168;2024-03-23T13:11:30;98148.94;;;5.60;nan
9831;BME280;4954;48.476;8.168;2024-03-23T13:13:56;98148.47;;;5.55;nan
9831;BME280;4954;48.476;8.168;2024-03-23T13:16:21;98148.09;;;5.56;100.00
9831;BME280;4954;48.476;8.168;2024-03-23T13:18:47;98152.22;;;5.69;93.04
9831;BME280;4954;48.476;8.168;2024-03-23T13:21:13;98146.03;;;6.04;nan
9831;BME280;4954;48.476;8.168;2024-03-23T13:23:38;98145.13;;;6.82;100.00
9831;BME280;4954;48.476;8.168;2024-03-23T13:26:07;98138.03;;;7.46;nan
9831;BME280;4954;48.476;8.168;2024-03-23T13:28:33;98133.94;;;7.90;nan
9831;BME280;4954;48.476;8.168;2024-03-23T13:31:00;98140.41;;;8.46;nan
9831;BME280;4954;48.476;8.168;2024-03-23T13:33:30;98120.72;;;8.94;nan
9831;BME280;4954;48.476;8.168;2024-03-23T13:35:57;98117.47;;;9.29;nan
9831;BME280;4954;48.476;8.168;2024-03-23T13:38:23;98098.91;;;9.35;nan
9831;BME280;4954;48.476;8.168;2024-03-23T13:40:57;98080.13;;;9.08;nan
9831;BME280;4954;48.476;8.168;2024-03-23T13:43:29;98053.88;;;8.67;nan
9831;BME280;4954;48.476;8.168;2024-03-23T13:45:59;98052.81;;;8.38;nan
9831;BME280;4954;48.476;8.168;2024-03-23T13:48:27;98066.00;;;8.02;nan
9831;BME280;4954;48.476;8.168;2024-03-23T13:51:04;98088.81;;;7.67;nan
9831;BME280;4954;48.476;8.168;2024-03-23T13:53:30;98096.34;;;7.24;nan
9831;BME280;4954;48.476;8.168;2024-03-23T13:55:59;98112.59;;;6.52;nan
9831;BME280;4954;48.476;8.168;2024-03-23T13:58:24;98129.06;;;6.04;nan
9831;BME280;4954;48.476;8.168;2024-03-23T14:00:51;98126.97;;;5.78;nan
9831;BME280;4954;48.476;8.168;2024-03-23T14:03:17;98118.59;;;5.83;nan
9831;BME280;4954;48.476;8.168;2024-03-23T14:05:43;98115.78;;;5.95;nan
9831;BME280;4954;48.476;8.168;2024-03-23T14:08:10;98116.88;;;6.33;nan
9831;BME280;4954;48.476;8.168;2024-03-23T14:10:40;98115.66;;;6.73;nan
9831;BME280;4954;48.476;8.168;2024-03-23T14:13:07;98109.97;;;7.05;nan
9831;BME280;4954;48.476;8.168;2024-03-23T14:15:32;98106.66;;;7.15;nan
9831;BME280;4954;48.476;8.168;2024-03-23T14:17:58;98095.63;;;7.27;nan
9831;BME280;4954;48.476;8.168;2024-03-23T14:20:25;98086.66;;;7.50;nan
9831;BME280;4954;48.476;8.168;2024-03-23T14:22:51;98082.50;;;7.56;nan
9831;BME280;4954;48.476;8.168;2024-03-23T14:25:17;98075.97;;;7.61;nan
9831;BME280;4954;48.476;8.168;2024-03-23T14:27:44;98065.84;;;7.54;nan
9831;BME280;4954;48.476;8.168;2024-03-23T14:30:11;98069.13;;;7.40;nan
9831;BME280;4954;48.476;8.168;2024-03-23T14:32:37;98076.88;;;7.42;nan
9831;BME280;4954;48.476;8.168;2024-03-23T14:35:04;98082.41;;;7.22;nan
9831;BME280;4954;48.476;8.168;2024-03-23T14:37:29;98089.88;;;7.02;93.20
9831;BME280;4954;48.476;8.168;2024-03-23T14:39:56;98103.41;;;6.79;nan
9831;BME280;4954;48.476;8.168;2024-03-23T14:42:22;98105.84;;;6.65;nan
9831;BME280;4954;48.476;8.168;2024-03-23T14:44:49;98103.34;;;6.53;nan